Seneca, Wisconsin
Current Conditions -  °F | °C
As of 11:53 AM on Sunday 23 Nov 2014 (Local Time) from KOVS Reporting Station
Moderate Rain Moderate Rain  
Wind Chill: 52°   Ceiling: 900
Heat Index: 52°   Visibility: 3mi
Dew Point: 49°   Wind: 5mph
Humidity: 89%   Direction: 190°S
Pressure: 29.5"   Gusts: NA
Location:  43.27°N, 90.96°W
Report Text: KOVS 231753Z AUTO 19004KT 3SM RA BR OVC009 11/09 A2950 RMK AO2 SLP990 P0005 60005 T01110094 10117 20106 58030
Loading
Personal Weather Stations






























Interactive Weather Map New forecast layout! Learn more

10-Day Weather Forecast

Advertisements
Track Severe Weather on mobile